Yates City, Illinois
Current Conditions -  °F | °C
As of 3:22 AM on Wednesday 28 Jan 2015 (Local Time) from KPIA Reporting Station
Scattered Clouds Scattered Clouds  
Wind Chill: 23°   Ceiling: Unl
Heat Index: 28°   Visibility: 9mi
Dew Point: 22°   Wind: 5mph
Humidity: 78%   Direction: 160°SSE
Pressure: 30.25"   Gusts: NA
Location:  40.78°N, 90.01°W
Report Text: KPIA 280922Z 16004KT 9SM SCT013 M02/M06 A3025 RMK AO2 T10221056
Loading
Personal Weather Stations






























Interactive Weather Map New forecast layout! Learn more

10-Day Weather Forecast

Advertisements
Track Severe Weather on mobile